Time;durP1;ratioP1;P1;durP2;ratioP2;P2;SDS_P1;SDS_P2;PMS_P1;PMS_P2;Temp;Humidity;BMP_temperature;BMP_pressure;BME280_temperature;BME280_humidity;BME280_pressure;Samples;Min_cycle;Max_cycle;Signal;HPM_P1;HPM_P2
2022/10/17 00:00:30;;;;;;;4.90;3.47;;;15.70;72.70;;;;;;5048097;28;20489;-70
2022/10/17 00:02:56;;;;;;;7.15;4.55;;;15.60;72.70;;;;;;5015901;28;20534;-70
2022/10/17 00:05:23;;;;;;;10.07;4.47;;;15.60;72.70;;;;;;5034597;28;20039;-70
2022/10/17 00:07:50;;;;;;;6.85;4.60;;;15.60;72.90;;;;;;5034702;28;20084;-70
2022/10/17 00:10:16;;;;;;;6.35;4.53;;;15.60;72.80;;;;;;5015831;28;20021;-70
2022/10/17 00:12:42;;;;;;;8.63;5.05;;;15.60;72.70;;;;;;5033149;28;20457;-71
2022/10/17 00:15:08;;;;;;;11.63;4.90;;;15.60;72.80;;;;;;5041766;28;20040;-70
2022/10/17 00:17:33;;;;;;;8.13;5.35;;;15.60;72.90;;;;;;5045764;28;20033;-71
2022/10/17 00:20:00;;;;;;;8.18;4.68;;;15.50;73.00;;;;;;5033266;28;20389;-70
2022/10/17 00:22:26;;;;;;;6.53;4.18;;;15.50;72.90;;;;;;5033367;28;20021;-70
2022/10/17 00:24:55;;;;;;;14.75;5.10;;;15.50;72.90;;;;;;5050319;28;20465;-70
2022/10/17 00:27:21;;;;;;;9.25;4.25;;;15.50;72.80;;;;;;5044256;28;20044;-70
2022/10/17 00:29:48;;;;;;;7.25;4.88;;;15.50;72.80;;;;;;5015585;28;20025;-70
2022/10/17 00:32:14;;;;;;;8.68;5.15;;;15.50;72.80;;;;;;5037743;28;20024;-70
2022/10/17 00:34:40;;;;;;;8.68;5.28;;;15.50;72.80;;;;;;5052497;28;20039;-71
2022/10/17 00:37:06;;;;;;;7.53;4.80;;;15.40;72.70;;;;;;5052835;28;20100;-70
2022/10/17 00:39:32;;;;;;;6.55;4.05;;;15.40;72.70;;;;;;5053161;28;20052;-70
2022/10/17 00:41:57;;;;;;;7.85;4.00;;;15.40;72.70;;;;;;5052700;28;20112;-70
2022/10/17 00:44:29;;;;;;;12.25;4.10;;;15.30;72.60;;;;;;5036576;28;20124;-70
2022/10/17 00:46:57;;;;;;;6.63;4.43;;;15.30;72.70;;;;;;5050233;28;20039;-70
2022/10/17 00:49:25;;;;;;;6.50;4.07;;;15.30;72.60;;;;;;5034701;28;20124;-70
2022/10/17 00:51:57;;;;;;;6.03;3.92;;;15.30;72.60;;;;;;5050735;28;20033;-70
2022/10/17 00:54:30;;;;;;;5.80;4.50;;;15.20;72.60;;;;;;5050315;28;20040;-70
2022/10/17 00:56:56;;;;;;;7.80;4.57;;;15.20;72.60;;;;;;5051373;28;20385;-71
2022/10/17 00:59:23;;;;;;;6.88;4.70;;;15.20;72.60;;;;;;5016147;28;20140;-71
2022/10/17 01:02:17;;;;;;;5.57;4.45;;;15.20;72.70;;;;;;5051966;28;20029;-70
2022/10/17 01:04:46;;;;;;;8.90;4.78;;;15.10;72.70;;;;;;5049599;28;20041;-70
2022/10/17 01:07:12;;;;;;;5.43;3.90;;;15.10;72.60;;;;;;5055922;28;20124;-70
2022/10/17 01:09:39;;;;;;;6.32;4.22;;;15.10;72.60;;;;;;5056332;28;20482;-70
2022/10/17 01:12:31;;;;;;;6.18;4.30;;;15.10;72.60;;;;;;5056299;28;20370;-70
2022/10/17 01:15:15;;;;;;;9.52;5.15;;;15.00;72.60;;;;;;4936428;29;20079;-70
2022/10/17 01:17:52;;;;;;;17.20;5.55;;;15.00;72.80;;;;;;5056192;28;20029;-70
2022/10/17 01:20:28;;;;;;;8.35;4.63;;;15.00;73.10;;;;;;5056212;28;20035;-70
2022/10/17 01:23:12;;;;;;;11.43;5.10;;;15.00;73.20;;;;;;5055859;28;20025;-71
2022/10/17 01:26:11;;;;;;;11.43;4.97;;;15.00;73.40;;;;;;5056101;28;20120;-71
2022/10/17 01:28:59;;;;;;;9.70;4.78;;;15.00;74.10;;;;;;5056273;28;20083;-70
2022/10/17 01:31:37;;;;;;;8.10;4.45;;;14.90;73.10;;;;;;5055629;28;20091;-70
2022/10/17 01:34:14;;;;;;;10.13;4.20;;;14.90;73.00;;;;;;5038012;28;20025;-70
2022/10/17 01:37:13;;;;;;;8.25;4.30;;;14.90;73.00;;;;;;5055938;28;20036;-70
2022/10/17 01:39:49;;;;;;;5.97;4.40;;;14.90;73.10;;;;;;5037851;28;20182;-70
2022/10/17 01:42:36;;;;;;;6.93;4.05;;;14.90;73.00;;;;;;5055500;28;20491;-70
2022/10/17 01:45:20;;;;;;;5.90;4.50;;;14.90;73.00;;;;;;5055582;28;20368;-70
2022/10/17 01:47:49;;;;;;;12.18;4.45;;;14.80;72.90;;;;;;5055714;28;20037;-70
2022/10/17 01:50:21;;;;;;;6.10;3.72;;;14.80;72.80;;;;;;5055665;28;20071;-70
2022/10/17 01:53:02;;;;;;;5.55;4.10;;;14.80;72.80;;;;;;5055422;28;20074;-71
2022/10/17 01:55:32;;;;;;;7.05;3.28;;;14.70;72.80;;;;;;5035807;28;20029;-71
2022/10/17 01:58:15;;;;;;;5.80;4.07;;;14.70;72.80;;;;;;5053339;28;20033;-70
2022/10/17 02:00:44;;;;;;;5.68;3.78;;;14.70;73.00;;;;;;5055493;28;20599;-70
2022/10/17 02:03:16;;;;;;;11.23;4.25;;;14.70;73.00;;;;;;5055491;28;20024;-70
2022/10/17 02:05:43;;;;;;;6.78;4.13;;;14.70;73.10;;;;;;5055295;28;20035;-70
2022/10/17 02:08:08;;;;;;;4.65;3.58;;;14.60;73.00;;;;;;5055632;28;20039;-70
2022/10/17 02:10:45;;;;;;;7.78;3.47;;;14.60;73.10;;;;;;5037360;28;20024;-70
2022/10/17 02:13:18;;;;;;;6.82;4.38;;;14.60;73.30;;;;;;5037334;28;20029;-70
2022/10/17 02:15:56;;;;;;;7.33;3.63;;;14.60;73.40;;;;;;5035961;28;20029;-70
2022/10/17 02:18:35;;;;;;;4.35;3.25;;;14.60;73.40;;;;;;5055151;28;20035;-70
2022/10/17 02:21:38;;;;;;;6.78;4.00;;;14.60;73.30;;;;;;5055109;28;20033;-70
2022/10/17 02:24:21;;;;;;;6.00;4.03;;;14.50;73.30;;;;;;5050226;28;20072;-70
2022/10/17 02:26:56;;;;;;;7.68;4.07;;;14.50;73.20;;;;;;5055336;28;20027;-70
2022/10/17 02:29:29;;;;;;;4.40;2.97;;;14.50;73.10;;;;;;5037159;28;20035;-69
2022/10/17 02:32:05;;;;;;;5.47;3.78;;;14.50;73.10;;;;;;5055205;28;20070;-70
2022/10/17 02:34:45;;;;;;;5.75;3.65;;;14.50;73.20;;;;;;5054943;28;20033;-70
2022/10/17 02:37:14;;;;;;;4.38;3.00;;;14.50;73.20;;;;;;5036570;28;20033;-70
2022/10/17 02:39:43;;;;;;;4.20;3.13;;;14.50;73.30;;;;;;5036797;28;20119;-70
2022/10/17 02:42:11;;;;;;;8.40;3.20;;;14.50;73.40;;;;;;5054515;28;20148;-70
2022/10/17 02:44:41;;;;;;;7.18;4.45;;;14.40;73.40;;;;;;5054288;28;20033;-71
2022/10/17 02:47:30;;;;;;;6.45;3.45;;;14.40;73.40;;;;;;5054329;28;20021;-70
2022/10/17 02:50:00;;;;;;;5.10;3.45;;;14.40;73.50;;;;;;5054656;28;20469;-70
2022/10/17 02:52:54;;;;;;;5.88;3.72;;;14.40;74.30;;;;;;5036567;28;20139;-70
2022/10/17 02:55:38;;;;;;;5.18;3.40;;;14.40;73.80;;;;;;5054377;28;20107;-70
2022/10/17 02:58:09;;;;;;;6.20;4.00;;;14.40;73.80;;;;;;5036375;28;20111;-70
2022/10/17 03:00:36;;;;;;;6.43;4.10;;;14.40;74.00;;;;;;5054381;28;20064;-70
2022/10/17 03:03:20;;;;;;;4.93;3.40;;;14.40;74.00;;;;;;5036211;28;20039;-71
2022/10/17 03:05:46;;;;;;;5.05;3.78;;;14.40;74.10;;;;;;5036386;28;20033;-70
2022/10/17 03:08:12;;;;;;;5.68;3.92;;;14.40;74.00;;;;;;5053950;28;20080;-70
2022/10/17 03:10:38;;;;;;;13.13;4.68;;;14.40;74.00;;;;;;5054143;28;20488;-70
2022/10/17 03:13:03;;;;;;;6.03;4.38;;;14.40;74.10;;;;;;5035870;28;20036;-70
2022/10/17 03:15:29;;;;;;;6.65;4.28;;;14.40;74.20;;;;;;5054027;28;20029;-70
2022/10/17 03:17:55;;;;;;;9.07;4.57;;;14.50;74.20;;;;;;5054294;28;20021;-70
2022/10/17 03:20:21;;;;;;;7.32;4.43;;;14.50;74.20;;;;;;5053660;28;20388;-70
2022/10/17 03:22:46;;;;;;;8.93;4.03;;;14.50;74.40;;;;;;5053876;28;20021;-70
2022/10/17 03:25:12;;;;;;;5.55;3.80;;;14.50;74.50;;;;;;5035688;28;20055;-70
2022/10/17 03:27:38;;;;;;;8.13;5.00;;;14.50;74.50;;;;;;5053425;28;20035;-70
2022/10/17 03:30:04;;;;;;;7.93;4.70;;;14.50;74.60;;;;;;5053977;28;20380;-70
2022/10/17 03:32:32;;;;;;;5.72;4.05;;;14.50;74.70;;;;;;5053690;28;20029;-70
2022/10/17 03:34:58;;;;;;;16.65;4.47;;;14.50;74.70;;;;;;5053727;28;20035;-70
2022/10/17 03:37:24;;;;;;;7.43;4.35;;;14.50;74.80;;;;;;5035523;28;20112;-70
2022/10/17 03:39:49;;;;;;;7.40;4.28;;;14.50;74.70;;;;;;5053486;28;20495;-70
2022/10/17 03:42:15;;;;;;;8.82;4.35;;;14.60;74.70;;;;;;5035636;28;20427;-71
2022/10/17 03:44:41;;;;;;;6.75;4.43;;;14.60;74.70;;;;;;5035417;28;20032;-70
2022/10/17 03:47:06;;;;;;;9.52;4.60;;;14.50;74.50;;;;;;5053095;28;20020;-70
2022/10/17 03:49:35;;;;;;;8.90;4.32;;;14.60;74.40;;;;;;5053169;28;20074;-70
2022/10/17 03:52:01;;;;;;;11.18;4.18;;;14.60;74.30;;;;;;5052880;28;20025;-70
2022/10/17 03:54:27;;;;;;;5.68;3.58;;;14.50;74.30;;;;;;5035059;28;20029;-70
2022/10/17 03:56:53;;;;;;;4.63;3.70;;;14.60;74.40;;;;;;5052668;28;20465;-70
2022/10/17 03:59:19;;;;;;;6.50;3.80;;;14.50;74.30;;;;;;5031399;28;20081;-70
2022/10/17 04:01:45;;;;;;;7.82;4.93;;;14.50;74.20;;;;;;5033254;28;20033;-70
2022/10/17 04:04:11;;;;;;;5.88;4.25;;;14.50;74.40;;;;;;5031825;28;20029;-70
2022/10/17 04:06:37;;;;;;;6.18;4.18;;;14.50;74.60;;;;;;5033255;28;20394;-70
2022/10/17 04:09:04;;;;;;;6.35;4.05;;;14.50;74.70;;;;;;5032921;28;20025;-70
2022/10/17 04:11:30;;;;;;;8.38;3.88;;;14.50;74.60;;;;;;5033068;28;20026;-70
2022/10/17 04:13:58;;;;;;;7.20;4.03;;;14.50;74.50;;;;;;5033287;28;20514;-70
2022/10/17 04:16:24;;;;;;;4.68;3.30;;;14.50;75.20;;;;;;5031638;28;20033;-70
2022/10/17 04:18:54;;;;;;;5.88;3.60;;;14.40;74.30;;;;;;5033085;28;20022;-70
2022/10/17 04:21:22;;;;;;;5.40;3.50;;;14.40;74.30;;;;;;5031686;28;20036;-70
2022/10/17 04:23:47;;;;;;;8.02;4.18;;;14.40;74.20;;;;;;5031559;28;20037;-70
2022/10/17 04:26:13;;;;;;;6.88;4.70;;;14.40;74.30;;;;;;5032978;28;20022;-70
2022/10/17 04:28:39;;;;;;;7.95;4.85;;;14.40;74.40;;;;;;5031727;28;20026;-70
2022/10/17 04:31:08;;;;;;;6.00;4.00;;;14.40;74.70;;;;;;5032796;28;20025;-70
2022/10/17 04:33:34;;;;;;;7.43;4.88;;;14.40;75.80;;;;;;5031576;28;20021;-70
2022/10/17 04:36:05;;;;;;;10.77;4.88;;;14.40;75.30;;;;;;5031240;28;20079;-70
2022/10/17 04:38:31;;;;;;;10.25;5.97;;;14.50;75.80;;;;;;5031660;28;20469;-70
2022/10/17 04:41:02;;;;;;;8.50;4.80;;;14.50;76.20;;;;;;5037231;28;20030;-70
2022/10/17 04:43:31;;;;;;;14.18;5.15;;;14.60;76.50;;;;;;5036876;28;20029;-70
2022/10/17 04:46:02;;;;;;;8.68;4.90;;;14.70;76.70;;;;;;5036469;28;20029;-70
2022/10/17 04:48:29;;;;;;;8.15;4.32;;;14.70;76.70;;;;;;5036771;28;20029;-70
2022/10/17 04:51:17;;;;;;;6.40;4.65;;;14.80;76.70;;;;;;5036831;28;20085;-69
2022/10/17 04:53:44;;;;;;;8.43;4.72;;;14.90;76.80;;;;;;5035227;28;20033;-70
2022/10/17 04:56:16;;;;;;;8.93;4.60;;;15.00;76.60;;;;;;5036670;28;20079;-70
2022/10/17 04:58:42;;;;;;;7.78;4.47;;;15.10;76.70;;;;;;5036852;28;20048;-70
2022/10/17 05:01:12;;;;;;;12.63;4.75;;;15.20;76.60;;;;;;5056864;28;20413;-70
2022/10/17 05:03:38;;;;;;;6.43;3.70;;;15.20;76.50;;;;;;5038692;28;20024;-70
2022/10/17 05:06:10;;;;;;;7.63;4.55;;;15.30;76.40;;;;;;5038522;28;20087;-70
2022/10/17 05:08:36;;;;;;;7.63;4.60;;;15.30;76.40;;;;;;5056128;28;20036;-70
2022/10/17 05:11:02;;;;;;;12.23;5.43;;;15.40;76.20;;;;;;5056695;28;20033;-70
2022/10/17 05:13:28;;;;;;;9.27;5.45;;;15.50;76.10;;;;;;5056235;28;20049;-70
2022/10/17 05:16:00;;;;;;;12.52;5.93;;;15.50;76.10;;;;;;5056107;28;20029;-70
2022/10/17 05:18:29;;;;;;;10.15;5.43;;;15.60;76.10;;;;;;5056092;28;20029;-70
2022/10/17 05:20:56;;;;;;;6.72;4.70;;;15.60;76.00;;;;;;5055573;28;20031;-70
2022/10/17 05:23:22;;;;;;;20.25;6.22;;;15.70;76.00;;;;;;5037933;28;20057;-70
2022/10/17 05:25:52;;;;;;;8.98;6.07;;;15.70;75.90;;;;;;5055865;28;20118;-70
2022/10/17 05:28:18;;;;;;;11.70;6.28;;;15.80;75.90;;;;;;5038088;28;20029;-70
2022/10/17 05:30:43;;;;;;;9.13;6.60;;;15.80;75.80;;;;;;5055650;28;20029;-70
2022/10/17 05:33:09;;;;;;;14.85;8.50;;;15.90;75.70;;;;;;5055800;28;20033;-71
2022/10/17 05:35:35;;;;;;;13.80;7.63;;;15.90;75.60;;;;;;5037933;28;20467;-71
2022/10/17 05:38:01;;;;;;;11.80;7.32;;;16.00;75.60;;;;;;5055580;28;20040;-71
2022/10/17 05:40:27;;;;;;;11.52;7.40;;;16.00;75.50;;;;;;5055677;28;20025;-70
2022/10/17 05:42:52;;;;;;;11.15;7.25;;;16.00;75.40;;;;;;5037781;28;20025;-69
2022/10/17 05:45:18;;;;;;;15.30;8.00;;;16.10;75.40;;;;;;5055408;28;20033;-70
2022/10/17 05:47:44;;;;;;;16.60;9.38;;;16.10;75.30;;;;;;5055480;28;20033;-71
2022/10/17 05:50:11;;;;;;;18.60;9.15;;;16.10;75.20;;;;;;5055531;28;20025;-70
2022/10/17 05:52:37;;;;;;;23.52;12.07;;;16.20;75.30;;;;;;5037673;28;20429;-71
2022/10/17 05:55:04;;;;;;;27.17;13.20;;;16.20;75.30;;;;;;5055285;28;20116;-71
2022/10/17 05:57:30;;;;;;;49.55;23.65;;;16.30;75.30;;;;;;5055088;28;20033;-71
2022/10/17 05:59:56;;;;;;;73.32;32.00;;;16.30;75.30;;;;;;5055635;28;20041;-71
2022/10/17 06:02:25;;;;;;;92.75;38.28;;;16.40;75.40;;;;;;5055666;28;20350;-70
2022/10/17 06:04:51;;;;;;;105.38;40.15;;;16.40;75.40;;;;;;5037615;28;20086;-70
2022/10/17 06:07:17;;;;;;;87.93;36.25;;;16.50;75.50;;;;;;5055597;28;20029;-70
2022/10/17 06:09:43;;;;;;;84.72;35.53;;;16.50;75.40;;;;;;5037686;28;20031;-70
2022/10/17 06:12:11;;;;;;;70.88;31.25;;;16.50;75.30;;;;;;5037439;28;20033;-69
2022/10/17 06:14:37;;;;;;;64.90;31.58;;;16.60;75.40;;;;;;5055487;28;20040;-70
2022/10/17 06:17:03;;;;;;;84.30;36.97;;;16.60;75.30;;;;;;5055379;28;20453;-70
2022/10/17 06:19:29;;;;;;;80.75;38.28;;;16.70;75.30;;;;;;5055287;28;20036;-70
2022/10/17 06:21:54;;;;;;;95.60;44.30;;;16.70;75.20;;;;;;5054979;28;20079;-70
2022/10/17 06:24:20;;;;;;;97.32;45.70;;;16.80;75.10;;;;;;5055058;28;20111;-69
2022/10/17 06:26:48;;;;;;;108.53;45.03;;;16.80;75.00;;;;;;5037339;28;20056;-70
2022/10/17 06:29:14;;;;;;;122.68;46.25;;;16.80;75.00;;;;;;5037282;28;20530;-69
2022/10/17 06:31:40;;;;;;;106.03;43.92;;;16.90;74.90;;;;;;5037084;28;20029;-73
2022/10/17 06:34:06;;;;;;;93.85;38.80;;;16.90;74.80;;;;;;5055109;28;20025;-70
2022/10/17 06:36:34;;;;;;;76.72;34.00;;;17.00;74.70;;;;;;5055088;28;20079;-70
2022/10/17 06:39:03;;;;;;;90.90;34.65;;;17.00;74.50;;;;;;5054633;28;20025;-71
2022/10/17 06:41:30;;;;;;;81.20;32.80;;;17.00;74.00;;;;;;5037213;28;20037;-70
2022/10/17 06:43:56;;;;;;;83.82;30.58;;;17.00;73.70;;;;;;5054565;28;20032;-69
2022/10/17 06:46:25;;;;;;;61.50;25.13;;;17.00;73.80;;;;;;5054759;28;20035;-69
2022/10/17 06:48:51;;;;;;;68.30;27.58;;;17.00;73.90;;;;;;5036888;28;20124;-70
2022/10/17 06:51:17;;;;;;;58.25;25.15;;;17.10;74.00;;;;;;5036932;28;20025;-70
2022/10/17 06:53:43;;;;;;;68.32;27.05;;;17.10;74.10;;;;;;5054519;28;20037;-69
2022/10/17 06:56:09;;;;;;;66.68;26.17;;;17.10;74.10;;;;;;5054197;28;20032;-70
2022/10/17 06:58:38;;;;;;;63.40;25.17;;;17.20;74.10;;;;;;5036414;28;20476;-69
2022/10/17 07:01:09;;;;;;;77.70;28.92;;;17.20;74.10;;;;;;5036122;28;20056;-69
2022/10/17 07:03:36;;;;;;;78.32;32.72;;;17.20;74.00;;;;;;5036298;28;20465;-69
2022/10/17 07:06:02;;;;;;;85.60;33.15;;;17.30;73.70;;;;;;5054232;28;20028;-69
2022/10/17 07:08:28;;;;;;;71.50;30.02;;;17.30;73.60;;;;;;5054286;28;20483;-69
2022/10/17 07:10:55;;;;;;;68.10;30.08;;;17.30;73.50;;;;;;5036507;28;20447;-70
2022/10/17 07:13:24;;;;;;;91.35;39.22;;;17.30;73.40;;;;;;5053917;28;20035;-71
2022/10/17 07:15:50;;;;;;;78.75;38.22;;;17.40;73.50;;;;;;5054121;28;20104;-70
2022/10/17 07:18:15;;;;;;;89.32;43.20;;;17.40;73.60;;;;;;5036345;28;20059;-71
2022/10/17 07:20:41;;;;;;;98.65;44.67;;;17.40;73.50;;;;;;5035580;28;20028;-70
2022/10/17 07:23:07;;;;;;;113.80;52.33;;;17.50;73.50;;;;;;5036260;28;20078;-70
2022/10/17 07:25:35;;;;;;;112.20;53.33;;;17.50;73.10;;;;;;5053690;28;20362;-70
2022/10/17 07:28:01;;;;;;;102.80;49.28;;;17.50;72.90;;;;;;5035847;28;20037;-70
2022/10/17 07:30:27;;;;;;;95.97;45.75;;;17.60;72.70;;;;;;5036167;28;20029;-71
2022/10/17 07:32:53;;;;;;;89.03;47.25;;;17.60;72.60;;;;;;5035958;28;20044;-70
2022/10/17 07:35:20;;;;;;;96.50;48.60;;;17.70;72.40;;;;;;5053880;28;20032;-70
2022/10/17 07:37:46;;;;;;;117.22;54.92;;;17.80;72.40;;;;;;5053393;28;20017;-71
2022/10/17 07:40:12;;;;;;;124.55;57.00;;;17.80;72.10;;;;;;5053825;28;20020;-70
2022/10/17 07:42:38;;;;;;;144.40;64.45;;;17.90;72.10;;;;;;5053630;28;20051;-70
2022/10/17 07:45:07;;;;;;;147.13;62.75;;;18.00;71.70;;;;;;5053851;28;20083;-70
2022/10/17 07:47:34;;;;;;;147.95;67.20;;;18.00;71.40;;;;;;5035813;28;20039;-70
2022/10/17 07:50:01;;;;;;;151.00;66.05;;;18.10;71.00;;;;;;5053668;28;20106;-70
2022/10/17 07:52:27;;;;;;;147.20;65.95;;;18.10;70.60;;;;;;5053623;28;20040;-70
2022/10/17 07:54:53;;;;;;;146.98;65.53;;;18.20;70.70;;;;;;5053398;28;20033;-70
2022/10/17 07:57:18;;;;;;;153.15;66.45;;;18.20;70.30;;;;;;5053076;28;20522;-70
2022/10/17 07:59:44;;;;;;;145.00;65.43;;;18.20;69.90;;;;;;5053180;28;20394;-71
2022/10/17 08:02:23;;;;;;;147.88;66.97;;;18.30;69.70;;;;;;5035624;28;20036;-70
2022/10/17 08:04:49;;;;;;;139.68;64.72;;;18.30;69.40;;;;;;5053381;28;20078;-70
2022/10/17 08:07:18;;;;;;;125.43;59.72;;;18.40;68.90;;;;;;5053370;28;20039;-70
2022/10/17 08:09:45;;;;;;;132.10;59.28;;;18.40;68.90;;;;;;5052956;28;20092;-70
2022/10/17 08:12:13;;;;;;;147.90;65.00;;;18.40;68.90;;;;;;5053174;28;20055;-70
2022/10/17 08:14:39;;;;;;;144.82;64.68;;;18.50;68.60;;;;;;5053067;28;20043;-70
2022/10/17 08:17:05;;;;;;;141.40;64.25;;;18.50;68.60;;;;;;5052983;28;20441;-71
2022/10/17 08:19:33;;;;;;;136.63;60.45;;;18.60;68.60;;;;;;5035357;28;20056;-70
2022/10/17 08:22:01;;;;;;;133.00;58.70;;;18.60;68.40;;;;;;5052811;28;20029;-70
2022/10/17 08:24:27;;;;;;;131.60;60.70;;;18.60;68.40;;;;;;5035104;28;20021;-70
2022/10/17 08:26:55;;;;;;;138.77;61.15;;;18.70;68.10;;;;;;5035276;28;20524;-70
2022/10/17 08:29:21;;;;;;;142.27;63.25;;;18.70;68.00;;;;;;5035275;28;20036;-70
2022/10/17 08:31:50;;;;;;;151.35;66.18;;;18.80;67.80;;;;;;5053342;28;20033;-70
2022/10/17 08:34:16;;;;;;;154.30;64.95;;;18.80;67.60;;;;;;5035038;28;20036;-70
2022/10/17 08:36:41;;;;;;;143.10;66.22;;;18.90;67.70;;;;;;5052969;28;20392;-70
2022/10/17 08:39:10;;;;;;;153.93;67.95;;;18.90;67.00;;;;;;5052888;28;20060;-70
2022/10/17 08:41:55;;;;;;;147.82;66.30;;;19.00;66.80;;;;;;5035148;28;20396;-70
2022/10/17 08:44:32;;;;;;;149.40;66.72;;;19.00;66.80;;;;;;5053254;28;20032;-70
2022/10/17 08:47:02;;;;;;;137.32;64.68;;;19.00;66.40;;;;;;5053009;28;20029;-70
2022/10/17 08:49:41;;;;;;;125.35;60.72;;;19.10;66.30;;;;;;5052873;28;20473;-70
2022/10/17 08:52:33;;;;;;;130.07;60.53;;;19.10;67.20;;;;;;5052888;28;20112;-70
2022/10/17 08:54:58;;;;;;;123.32;61.05;;;19.20;66.50;;;;;;5052471;28;20392;-70
2022/10/17 08:57:27;;;;;;;127.95;61.05;;;19.30;66.60;;;;;;5034935;28;20050;-70
2022/10/17 08:59:53;;;;;;;122.55;61.22;;;19.30;66.30;;;;;;5052694;28;20230;-70
2022/10/17 09:02:57;;;;;;;129.00;61.20;;;19.40;65.90;;;;;;5035002;28;20413;-70
2022/10/17 09:05:54;;;;;;;117.28;58.03;;;19.40;65.70;;;;;;5052759;28;20025;-71
2022/10/17 09:08:44;;;;;;;108.82;56.05;;;19.50;65.50;;;;;;5052943;28;20032;-71
2022/10/17 09:11:23;;;;;;;105.60;55.00;;;19.70;65.70;;;;;;5053245;28;20033;-71
2022/10/17 09:13:54;;;;;;;106.50;55.65;;;19.70;65.60;;;;;;5034956;28;20423;-71
2022/10/17 09:16:39;;;;;;;98.35;51.47;;;19.80;65.40;;;;;;5053112;28;20037;-69
2022/10/17 09:19:32;;;;;;;84.88;46.08;;;19.90;64.70;;;;;;5035177;28;20035;-70
2022/10/17 09:22:22;;;;;;;75.68;42.63;;;20.00;63.90;;;;;;5034923;28;20068;-71
2022/10/17 09:24:59;;;;;;;70.18;39.78;;;20.10;63.60;;;;;;5053245;28;20362;-71
2022/10/17 09:27:33;;;;;;;69.70;39.92;;;20.10;63.20;;;;;;5037868;28;20078;-71
2022/10/17 09:30:39;;;;;;;67.38;40.88;;;20.20;63.20;;;;;;5018806;28;20021;-71
2022/10/17 09:33:15;;;;;;;62.25;37.97;;;20.20;63.00;;;;;;5036035;28;20410;-71
2022/10/17 09:35:42;;;;;;;62.88;38.45;;;20.30;62.40;;;;;;5018639;28;20538;-70
2022/10/17 09:38:19;;;;;;;59.70;37.35;;;20.40;62.20;;;;;;5018538;28;20026;-71
2022/10/17 09:40:56;;;;;;;51.63;34.22;;;20.40;61.50;;;;;;5018483;28;20037;-71
2022/10/17 09:43:23;;;;;;;48.65;32.55;;;20.50;62.40;;;;;;5035879;28;20414;-71
2022/10/17 09:46:21;;;;;;;56.35;35.83;;;20.60;61.30;;;;;;5036087;28;20075;-70
2022/10/17 09:49:17;;;;;;;55.53;33.78;;;20.60;60.60;;;;;;5018418;28;20083;-71
2022/10/17 09:51:43;;;;;;;60.78;36.60;;;20.70;61.10;;;;;;5035792;28;20024;-71
2022/10/17 09:54:24;;;;;;;52.15;34.47;;;20.80;60.80;;;;;;5025835;28;20127;-70
2022/10/17 09:57:05;;;;;;;60.60;37.00;;;20.90;60.90;;;;;;5037740;28;20029;-71
2022/10/17 09:59:56;;;;;;;63.63;35.00;;;21.00;60.30;;;;;;5037486;28;20432;-70
2022/10/17 10:02:24;;;;;;;54.45;33.85;;;21.00;60.00;;;;;;5047597;28;20112;-70
2022/10/17 10:05:23;;;;;;;49.28;32.45;;;21.10;60.00;;;;;;5055579;28;20036;-71
2022/10/17 10:08:12;;;;;;;47.17;30.33;;;21.20;59.70;;;;;;5046491;28;20044;-70
2022/10/17 10:10:42;;;;;;;53.63;34.28;;;21.30;59.50;;;;;;5037755;28;20447;-71
2022/10/17 10:13:14;;;;;;;51.55;33.63;;;21.40;59.00;;;;;;5037648;28;20044;-70
2022/10/17 10:15:45;;;;;;;45.33;31.55;;;21.40;59.00;;;;;;5037550;28;20045;-70
2022/10/17 10:18:25;;;;;;;64.50;41.70;;;21.50;58.90;;;;;;5037652;28;20120;-71
2022/10/17 10:21:02;;;;;;;69.63;42.90;;;21.50;58.70;;;;;;5055280;28;20029;-70
2022/10/17 10:23:28;;;;;;;67.60;40.88;;;21.50;58.50;;;;;;5055012;28;20029;-70
2022/10/17 10:25:57;;;;;;;71.38;44.63;;;21.60;59.10;;;;;;5054913;28;20543;-70
2022/10/17 10:28:26;;;;;;;64.03;41.53;;;21.60;58.60;;;;;;5055258;28;20419;-71
2022/10/17 10:30:54;;;;;;;68.47;41.63;;;21.60;58.40;;;;;;5053635;28;20032;-71
2022/10/17 10:33:24;;;;;;;73.82;46.35;;;21.60;58.20;;;;;;5035885;28;20025;-71
2022/10/17 10:35:56;;;;;;;73.95;45.95;;;21.70;57.80;;;;;;5054709;28;20092;-71
2022/10/17 10:38:22;;;;;;;74.75;43.97;;;21.70;57.30;;;;;;5036559;28;20116;-70
2022/10/17 10:41:00;;;;;;;72.32;44.83;;;21.80;57.40;;;;;;5037157;28;20025;-70
2022/10/17 10:43:45;;;;;;;70.25;45.25;;;21.70;57.20;;;;;;5036958;28;20021;-70
2022/10/17 10:46:22;;;;;;;73.43;45.70;;;21.60;57.60;;;;;;5036687;28;20129;-70
2022/10/17 10:48:59;;;;;;;70.32;45.92;;;21.60;57.20;;;;;;5054902;28;20029;-71
2022/10/17 10:51:38;;;;;;;78.15;47.50;;;21.50;57.40;;;;;;5036753;28;20032;-71
2022/10/17 10:54:11;;;;;;;83.88;51.50;;;21.40;57.50;;;;;;5054530;28;20025;-71
2022/10/17 10:56:42;;;;;;;79.17;50.30;;;21.30;57.20;;;;;;5054531;28;20032;-73
2022/10/17 10:59:27;;;;;;;81.82;51.90;;;21.20;57.30;;;;;;5031818;28;20049;-73
2022/10/17 11:02:10;;;;;;;;;;;21.10;57.40;;;;;;5046630;28;20025;-73
2022/10/17 11:04:51;;;;;;;82.68;49.25;;;21.00;58.60;;;;;;5044501;28;20257;-73
2022/10/17 11:07:27;;;;;;;80.63;51.67;;;20.90;57.90;;;;;;5016817;28;20469;-73
2022/10/17 11:10:04;;;;;;;74.10;49.83;;;20.80;58.10;;;;;;5034536;28;20061;-73
2022/10/17 11:12:35;;;;;;;83.38;51.75;;;20.70;58.40;;;;;;5034525;28;20036;-73
2022/10/17 11:15:30;;;;;;;85.40;52.53;;;20.60;58.50;;;;;;5034298;28;20124;-73
2022/10/17 11:18:05;;;;;;;80.68;50.80;;;20.50;58.50;;;;;;5037890;28;20024;-73
2022/10/17 11:20:39;;;;;;;77.22;50.03;;;20.40;58.50;;;;;;5054198;28;20036;-73
2022/10/17 11:23:19;;;;;;;75.82;47.65;;;20.30;58.90;;;;;;5036316;28;20546;-73
2022/10/17 11:25:48;;;;;;;73.13;47.78;;;20.30;59.20;;;;;;5053873;28;20040;-73
2022/10/17 11:28:18;;;;;;;76.93;47.90;;;20.20;59.40;;;;;;5036212;28;20377;-73
2022/10/17 11:30:55;;;;;;;74.22;48.50;;;20.20;59.50;;;;;;5053994;28;20022;-73
2022/10/17 11:33:31;;;;;;;80.00;51.67;;;20.10;59.70;;;;;;5053818;28;20025;-73
2022/10/17 11:36:05;;;;;;;80.97;52.90;;;20.10;59.50;;;;;;5053737;28;20025;-73
2022/10/17 11:39:02;;;;;;;82.95;53.30;;;20.10;59.60;;;;;;5053841;28;20029;-73
2022/10/17 11:41:46;;;;;;;81.20;51.10;;;20.10;59.80;;;;;;5053824;28;20029;-73
2022/10/17 11:44:24;;;;;;;83.22;53.33;;;20.10;59.90;;;;;;5053496;28;20487;-73
2022/10/17 11:46:56;;;;;;;87.05;54.53;;;20.10;60.00;;;;;;5035883;28;20029;-73
2022/10/17 11:49:28;;;;;;;83.47;52.55;;;20.00;59.90;;;;;;5053223;28;20025;-73
2022/10/17 11:52:10;;;;;;;76.18;49.78;;;20.00;60.10;;;;;;5035655;28;20082;-73
2022/10/17 11:54:46;;;;;;;75.40;48.55;;;20.00;60.20;;;;;;5042401;28;20499;-73
2022/10/17 11:57:49;;;;;;;80.53;51.50;;;20.00;60.40;;;;;;5053480;28;20017;-73
2022/10/17 12:00:23;;;;;;;82.53;51.25;;;20.10;60.60;;;;;;5052247;28;20056;-73
2022/10/17 12:02:55;;;;;;;78.47;49.67;;;20.10;60.70;;;;;;5052772;28;20027;-73
2022/10/17 12:06:03;;;;;;;73.93;46.20;;;20.10;60.70;;;;;;5052572;28;20358;-73
2022/10/17 12:08:41;;;;;;;65.40;43.10;;;20.10;60.80;;;;;;5052580;28;20059;-73
2022/10/17 12:11:38;;;;;;;79.18;47.03;;;20.20;60.90;;;;;;5032201;28;20474;-73
2022/10/17 12:14:32;;;;;;;71.88;45.20;;;20.20;60.90;;;;;;5014739;28;20494;-73
2022/10/17 12:16:58;;;;;;;;;;;20.10;60.80;;;;;;5019202;28;20066;-73
2022/10/17 12:19:27;;;;;;;72.38;43.88;;;20.20;61.20;;;;;;5034197;28;19910;-73
2022/10/17 12:21:55;;;;;;;69.70;43.63;;;20.30;60.70;;;;;;5050959;28;20025;-73
2022/10/17 12:24:42;;;;;;;65.18;40.97;;;20.20;60.50;;;;;;5051136;28;20036;-73
2022/10/17 12:27:31;;;;;;;60.20;41.20;;;20.30;60.60;;;;;;5051970;28;20123;-73
2022/10/17 12:30:11;;;;;;;66.45;40.97;;;20.30;60.70;;;;;;5018994;28;20029;-73
2022/10/17 12:32:52;;;;;;;66.18;39.63;;;20.30;60.50;;;;;;5052141;28;20025;-73
2022/10/17 12:35:22;;;;;;;63.58;40.15;;;20.30;60.60;;;;;;5051942;28;20456;-73
2022/10/17 12:37:48;;;;;;;56.20;38.35;;;20.30;60.50;;;;;;5052135;28;20025;-73
2022/10/17 12:40:35;;;;;;;59.45;38.00;;;20.30;60.50;;;;;;5034250;28;20350;-73
2022/10/17 12:43:14;;;;;;;61.75;38.00;;;20.40;60.70;;;;;;5034270;28;20070;-73
2022/10/17 12:45:48;;;;;;;58.95;38.35;;;20.40;60.70;;;;;;5033947;28;20033;-73
2022/10/17 12:48:32;;;;;;;73.13;40.30;;;20.40;60.70;;;;;;5034138;28;20025;-73
2022/10/17 12:51:16;;;;;;;70.53;38.47;;;20.40;61.00;;;;;;5052006;28;20036;-73
2022/10/17 12:53:45;;;;;;;59.38;38.42;;;20.50;60.70;;;;;;5051384;28;20045;-73
2022/10/17 12:56:12;;;;;;;53.60;35.80;;;20.50;60.40;;;;;;5033889;28;20388;-74
2022/10/17 12:58:44;;;;;;;53.88;35.78;;;20.50;60.50;;;;;;5051942;28;20057;-73